createdAt,value
2023-01-30T00:03:41.935Z,1.11
2023-01-30T00:08:41.815Z,1.13
2023-01-30T00:13:42.813Z,1.15
2023-01-30T00:18:44.035Z,1.16
2023-01-30T00:23:50.948Z,1.18
2023-01-30T00:28:49.790Z,1.18
2023-01-30T00:33:49.287Z,1.17
2023-01-30T00:38:51.606Z,1.17
2023-01-30T00:44:08.751Z,1.17
2023-01-30T00:49:09.693Z,1.19
2023-01-30T00:54:10.282Z,1.19
2023-01-30T00:59:10.277Z,1.18
2023-01-30T01:04:12.550Z,1.16
2023-01-30T01:09:12.971Z,1.15
2023-01-30T01:14:13.164Z,1.15
2023-01-30T01:19:13.872Z,1.17
2023-01-30T01:24:17.292Z,1.17
2023-01-30T01:29:18.719Z,1.18
2023-01-30T01:34:18.220Z,1.19
2023-01-30T01:39:17.540Z,1.20
2023-01-30T01:44:18.471Z,1.23
2023-01-30T01:49:25.646Z,1.25
2023-01-30T01:54:35.458Z,1.28
2023-01-30T01:59:43.461Z,1.31
2023-01-30T02:05:05.736Z,1.33
2023-01-30T02:10:06.617Z,1.36
2023-01-30T02:15:08.320Z,1.37
2023-01-30T02:20:18.934Z,1.39
2023-01-30T02:26:06.879Z,1.41
2023-01-30T02:31:29.274Z,1.44
2023-01-30T02:36:48.016Z,1.46
2023-01-30T02:42:02.011Z,1.49
2023-01-30T02:47:09.631Z,1.50
2023-01-30T02:52:13.176Z,1.51
2023-01-30T02:57:26.569Z,1.50
2023-01-30T03:03:08.699Z,1.48
2023-01-30T03:08:27.388Z,1.45
2023-01-30T03:13:43.974Z,1.40
2023-01-30T03:18:46.676Z,1.38
2023-01-30T03:23:51.020Z,1.33
2023-01-30T03:28:53.580Z,1.32
2023-01-30T03:33:52.756Z,1.29
2023-01-30T03:38:52.784Z,1.26
2023-01-30T03:43:52.956Z,1.24
2023-01-30T03:48:51.765Z,1.22
2023-01-30T03:53:51.598Z,1.19
2023-01-30T03:58:51.129Z,1.15
2023-01-30T04:03:53.741Z,1.10
2023-01-30T04:08:55.549Z,1.04
2023-01-30T04:14:16.106Z,1.00
2023-01-30T04:19:37.635Z,0.97
2023-01-30T04:24:37.013Z,0.94
2023-01-30T04:29:36.269Z,0.89
2023-01-30T04:34:36.277Z,0.86
2023-01-30T04:39:35.976Z,0.83
2023-01-30T04:44:35.643Z,0.81
2023-01-30T04:49:45.603Z,0.78
2023-01-30T04:54:45.641Z,0.80
2023-01-30T04:59:47.272Z,0.80
2023-01-30T05:04:46.389Z,0.80
2023-01-30T05:09:45.098Z,0.80
2023-01-30T05:14:46.731Z,0.78
2023-01-30T05:19:45.885Z,0.76
2023-01-30T05:24:45.921Z,0.75
2023-01-30T05:29:45.273Z,0.73
2023-01-30T05:34:45.101Z,0.71
2023-01-30T05:39:46.383Z,0.70
2023-01-30T05:44:46.288Z,0.69
2023-01-30T05:49:46.260Z,0.70
2023-01-30T05:54:48.095Z,0.71
2023-01-30T05:59:47.862Z,0.72
2023-01-30T06:04:47.964Z,0.73
2023-01-30T06:09:47.319Z,0.76
2023-01-30T06:14:46.677Z,0.78
2023-01-30T06:19:46.518Z,0.80
2023-01-30T06:24:45.615Z,0.81
2023-01-30T06:29:45.639Z,0.83
2023-01-30T06:34:47.452Z,0.85
2023-01-30T06:39:50.155Z,0.87
2023-01-30T06:44:50.154Z,0.89
2023-01-30T06:49:50.665Z,0.90
2023-01-30T06:54:49.971Z,0.90
2023-01-30T06:59:50.031Z,0.91
2023-01-30T07:04:50.054Z,0.89
2023-01-30T07:10:05.821Z,0.89
2023-01-30T07:15:07.237Z,0.90
2023-01-30T07:20:11.398Z,0.92
2023-01-30T07:25:12.629Z,0.92
2023-01-30T07:30:15.424Z,0.90
2023-01-30T07:35:15.230Z,0.87
2023-01-30T07:40:18.388Z,0.78
2023-01-30T07:45:19.751Z,0.67
2023-01-30T07:50:24.708Z,0.56
2023-01-30T07:55:24.549Z,0.46
2023-01-30T08:00:26.378Z,0.38
2023-01-30T08:05:26.078Z,0.31
2023-01-30T08:10:25.874Z,0.26
2023-01-30T08:15:25.594Z,0.21
2023-01-30T08:20:25.112Z,0.14
2023-01-30T08:25:25.433Z,0.11
2023-01-30T08:30:26.380Z,0.08
2023-01-30T08:35:25.881Z,0.04
2023-01-30T08:40:25.213Z,0.02
2023-01-30T08:45:27.629Z,-0.01
2023-01-30T08:50:27.050Z,-0.00
2023-01-30T08:55:26.525Z,-0.02
2023-01-30T09:00:30.578Z,-0.02
2023-01-30T09:05:31.415Z,-0.05
2023-01-30T09:10:31.759Z,-0.06
2023-01-30T09:15:32.104Z,-0.05
2023-01-30T09:20:34.805Z,-0.03
2023-01-30T09:25:34.228Z,0.00
2023-01-30T09:30:34.627Z,0.02
2023-01-30T09:35:35.518Z,0.03
2023-01-30T09:40:47.638Z,0.08
2023-01-30T09:46:02.269Z,0.11
2023-01-30T09:51:19.528Z,0.15
2023-01-30T09:56:18.710Z,0.21
2023-01-30T10:01:28.792Z,0.23
2023-01-30T10:06:28.543Z,0.25
2023-01-30T10:11:45.285Z,0.26
2023-01-30T10:17:01.480Z,0.28
2023-01-30T10:22:17.959Z,0.30
2023-01-30T10:27:22.188Z,0.31
2023-01-30T10:32:31.887Z,0.31
2023-01-30T10:37:41.485Z,0.30
2023-01-30T10:42:50.842Z,0.32
2023-01-30T10:48:03.087Z,0.35
2023-01-30T10:53:17.418Z,0.38
2023-01-30T10:58:29.823Z,0.39
2023-01-30T11:03:45.671Z,0.41
2023-01-30T11:08:48.155Z,0.46
2023-01-30T11:13:46.792Z,0.48
2023-01-30T11:24:21.876Z,0.59
2023-01-30T11:29:31.844Z,0.65
2023-01-30T11:34:31.083Z,0.72
2023-01-30T11:39:35.002Z,0.80
2023-01-30T11:44:38.091Z,0.89
2023-01-30T11:49:47.663Z,0.99
2023-01-30T11:55:08.993Z,1.06
2023-01-30T12:00:20.339Z,1.12
2023-01-30T12:05:33.238Z,1.15
2023-01-30T12:10:42.040Z,1.18
2023-01-30T12:15:45.693Z,1.18
2023-01-30T12:20:58.100Z,1.17
2023-01-30T12:26:08.568Z,1.16
2023-01-30T12:31:17.955Z,1.16
2023-01-30T12:36:32.256Z,1.15
2023-01-30T12:41:48.965Z,1.15
2023-01-30T12:47:07.024Z,1.19
2023-01-30T12:52:48.051Z,1.23
2023-01-30T12:57:55.270Z,1.27
2023-01-30T13:03:21.145Z,1.32
2023-01-30T13:08:43.308Z,1.35
2023-01-30T13:13:54.286Z,1.38
2023-01-30T13:19:01.876Z,1.42
2023-01-30T13:24:21.826Z,1.44
2023-01-30T13:29:31.751Z,1.46
2023-01-30T13:34:36.402Z,1.48
2023-01-30T13:39:42.556Z,1.49
2023-01-30T13:44:46.547Z,1.50
2023-01-30T13:49:59.396Z,1.52
2023-01-30T13:55:11.495Z,1.53
2023-01-30T14:00:34.054Z,1.55
2023-01-30T14:06:21.150Z,1.57
2023-01-30T14:11:44.773Z,1.59
2023-01-30T14:16:55.031Z,1.61
2023-01-30T14:22:05.441Z,1.63
2023-01-30T14:27:32.267Z,1.64
2023-01-30T14:32:59.129Z,1.66
2023-01-30T14:38:19.261Z,1.68
2023-01-30T14:44:04.367Z,1.71
2023-01-30T14:49:19.790Z,1.75
2023-01-30T14:54:41.265Z,1.79
2023-01-30T14:59:59.341Z,1.84
2023-01-30T15:05:15.970Z,1.88
2023-01-30T15:10:33.141Z,1.92
2023-01-30T15:15:42.609Z,1.94
2023-01-30T15:21:01.921Z,1.94
2023-01-30T15:26:25.249Z,1.96
2023-01-30T15:31:26.663Z,1.97
2023-01-30T15:36:34.172Z,1.98
2023-01-30T15:41:41.804Z,1.98
2023-01-30T15:46:57.125Z,1.97
2023-01-30T15:52:03.476Z,1.97
2023-01-30T15:57:03.365Z,1.98
2023-01-30T16:02:20.770Z,1.98
2023-01-30T16:07:27.479Z,2.02
2023-01-30T16:12:32.139Z,2.06
2023-01-30T16:17:35.758Z,2.09
2023-01-30T16:22:38.494Z,2.14
2023-01-30T16:27:41.406Z,2.16
2023-01-30T16:32:41.882Z,2.20
2023-01-30T16:37:41.858Z,2.23
2023-01-30T16:42:41.373Z,2.26
2023-01-30T16:47:42.274Z,2.28
2023-01-30T16:52:52.113Z,2.31
2023-01-30T16:58:03.162Z,2.34
2023-01-30T17:03:06.987Z,2.37
2023-01-30T17:08:06.861Z,2.39
2023-01-30T17:13:28.017Z,2.43
2023-01-30T17:18:26.997Z,2.43
2023-01-30T17:23:27.990Z,2.43
2023-01-30T17:28:28.147Z,2.42
2023-01-30T17:33:28.215Z,2.40
2023-01-30T17:38:31.688Z,2.39
2023-01-30T17:43:33.397Z,2.39
2023-01-30T17:48:34.623Z,2.39
2023-01-30T17:53:33.980Z,2.42
2023-01-30T17:58:34.760Z,2.44
2023-01-30T18:03:34.007Z,2.46
2023-01-30T18:08:33.311Z,2.49
2023-01-30T18:13:34.559Z,2.52
2023-01-30T18:18:35.346Z,2.55
2023-01-30T18:23:33.883Z,2.59
2023-01-30T18:28:33.262Z,2.61
2023-01-30T18:33:32.967Z,2.62
2023-01-30T18:38:32.666Z,2.64
2023-01-30T18:43:32.535Z,2.66
2023-01-30T18:48:33.728Z,2.68
2023-01-30T18:53:35.005Z,2.69
2023-01-30T18:58:36.139Z,2.70
2023-01-30T19:03:36.066Z,2.71
2023-01-30T19:08:36.336Z,2.71
2023-01-30T19:13:36.745Z,2.72
2023-01-30T19:18:36.876Z,2.72
2023-01-30T19:23:36.302Z,2.71
2023-01-30T19:29:15.703Z,2.68
2023-01-30T19:34:30.822Z,2.67
2023-01-30T19:39:33.769Z,2.66
2023-01-30T19:44:33.267Z,2.68
2023-01-30T19:49:35.794Z,2.68
2023-01-30T19:54:37.219Z,2.70
2023-01-30T19:59:38.893Z,2.71
2023-01-30T20:04:40.750Z,2.72
2023-01-30T20:09:40.358Z,2.72
2023-01-30T20:14:45.360Z,2.71
2023-01-30T20:19:44.717Z,2.68
2023-01-30T20:24:49.374Z,2.69
2023-01-30T20:30:00.838Z,2.70
2023-01-30T20:35:00.709Z,2.70
2023-01-30T20:40:00.241Z,2.70
2023-01-30T20:45:00.741Z,2.69
2023-01-30T20:50:00.166Z,2.68
2023-01-30T20:55:02.636Z,2.68
2023-01-30T21:00:02.200Z,2.69
2023-01-30T21:05:01.837Z,2.70
2023-01-30T21:10:01.176Z,2.71
2023-01-30T21:15:00.781Z,2.72
2023-01-30T21:20:00.436Z,2.73
2023-01-30T21:24:59.731Z,2.73
2023-01-30T21:30:00.614Z,2.73
2023-01-30T21:35:01.657Z,2.75
2023-01-30T21:40:19.464Z,2.75
2023-01-30T21:45:21.194Z,2.75
2023-01-30T21:50:21.709Z,2.74
2023-01-30T21:55:22.001Z,2.74
2023-01-30T22:00:22.670Z,2.72
2023-01-30T22:05:22.062Z,2.69
2023-01-30T22:10:22.447Z,2.67
2023-01-30T22:15:22.839Z,2.64
2023-01-30T22:20:22.742Z,2.63
2023-01-30T22:25:22.521Z,2.61
2023-01-30T22:30:22.684Z,2.62
2023-01-30T22:35:22.116Z,2.61
2023-01-30T22:40:22.619Z,2.61
2023-01-30T22:45:36.265Z,2.62
2023-01-30T22:50:42.409Z,2.64
2023-01-30T22:55:52.287Z,2.63
2023-01-30T23:01:10.279Z,2.64
2023-01-30T23:06:12.837Z,2.63
2023-01-30T23:11:18.492Z,2.64
2023-01-30T23:16:22.232Z,2.68
2023-01-30T23:21:22.424Z,2.69
2023-01-30T23:26:23.037Z,2.70
2023-01-30T23:31:25.571Z,2.72
2023-01-30T23:36:25.520Z,2.74
2023-01-30T23:41:28.565Z,2.76
2023-01-30T23:46:31.143Z,2.75
2023-01-30T23:51:33.285Z,2.74
2023-01-30T23:56:37.545Z,2.75
